createdAt,value
2023-09-01T00:04:36.628Z,7.87
2023-09-01T00:14:47.526Z,12.08
2023-09-01T00:24:49.037Z,10.96
2023-09-01T00:35:06.637Z,8.28
2023-09-01T00:45:06.214Z,8.36
2023-09-01T00:55:15.412Z,8.23
2023-09-01T01:05:25.730Z,9.86
2023-09-01T01:15:24.735Z,9.97
2023-09-01T01:25:33.825Z,12.21
2023-09-01T01:35:42.995Z,12.68
2023-09-01T01:45:52.074Z,13.35
2023-09-01T01:56:02.400Z,11.11
2023-09-01T02:06:10.454Z,10.87
2023-09-01T02:16:19.051Z,12.35
2023-09-01T02:26:27.678Z,11.67
2023-09-01T02:36:36.352Z,9.57
2023-09-01T02:46:44.962Z,11.1
2023-09-01T02:56:53.487Z,14.64
2023-09-01T03:07:02.311Z,13.66
2023-09-01T03:17:11.279Z,12.75
2023-09-01T03:27:20.391Z,12.3
2023-09-01T03:37:29.424Z,12.46
2023-09-01T03:47:38.538Z,12.07
2023-09-01T03:57:47.387Z,11.3
2023-09-01T04:07:56.386Z,12.36
2023-09-01T04:18:05.394Z,10.17
2023-09-01T04:28:14.482Z,12.55
2023-09-01T04:38:22.687Z,12.54
2023-09-01T04:48:31.788Z,13
2023-09-01T04:58:40.773Z,10.45
2023-09-01T05:08:49.846Z,9.26
2023-09-01T05:18:58.755Z,10.11
2023-09-01T05:29:07.881Z,11.75
2023-09-01T05:39:16.805Z,14.68
2023-09-01T05:49:25.869Z,16.92
2023-09-01T05:59:35.483Z,16.92
2023-09-01T06:09:36.033Z,15.72
2023-09-01T06:19:45.027Z,13.92
2023-09-01T06:29:54.278Z,10.61
2023-09-01T06:40:04.652Z,23.9
2023-09-01T06:50:04.896Z,14.85
2023-09-01T07:00:14.015Z,12.77
2023-09-01T07:10:24.897Z,10.22
2023-09-01T07:20:25.459Z,11.18
2023-09-01T07:30:25.720Z,12.21
2023-09-01T07:50:34.538Z,11.27
2023-09-01T08:00:38.355Z,10.79
2023-09-01T08:10:37.132Z,12.05
2023-09-01T08:30:49.390Z,9.35
2023-09-01T09:11:05.627Z,5.97
2023-09-01T09:21:16.864Z,5.51
2023-09-01T09:31:18.252Z,6.07
2023-09-01T09:41:26.800Z,4.08
2023-09-01T09:51:34.959Z,4.23
2023-09-01T10:01:41.881Z,6.05
2023-09-01T10:11:45.427Z,4.9
2023-09-01T10:21:54.498Z,5.03
2023-09-01T10:31:57.782Z,5.21
2023-09-01T10:42:01.345Z,4.43
2023-09-01T10:52:05.439Z,4.91
2023-09-01T11:02:15.995Z,5.49
2023-09-01T11:12:20.147Z,4.07
2023-09-01T11:22:25.005Z,5.49
2023-09-01T11:32:42.370Z,4.51
2023-09-01T11:42:37.397Z,4.27
2023-09-01T11:52:43.713Z,4.47
2023-09-01T12:02:47.037Z,4.48
2023-09-01T12:12:54.633Z,5.06
2023-09-01T12:23:06.795Z,3.45
2023-09-01T12:32:57.663Z,4.23
2023-09-01T12:43:03.806Z,4.31
2023-09-01T12:52:56.690Z,4.43
2023-09-01T13:03:08.201Z,5.07
2023-09-01T13:13:08.058Z,4.96
2023-09-01T13:23:07.023Z,4.02
2023-09-01T13:33:16.131Z,4.98
2023-09-01T13:43:25.045Z,3.75
2023-09-01T13:53:37.341Z,5.1
2023-09-01T14:03:40.250Z,6.37
2023-09-01T14:13:57.154Z,4.66
2023-09-01T14:23:54.973Z,5.37
2023-09-01T14:33:55.111Z,5.87
2023-09-01T14:44:08.865Z,4.12
2023-09-01T14:54:25.177Z,5.19
2023-09-01T15:04:26.981Z,6.11
2023-09-01T15:14:22.342Z,6.79
2023-09-01T15:24:29.258Z,7.58
2023-09-01T15:34:29.518Z,5.04
2023-09-01T15:44:35.277Z,5.78
2023-09-01T15:54:40.664Z,4.9
2023-09-01T16:04:46.868Z,5.89
2023-09-01T16:14:54.936Z,5.68
2023-09-01T16:24:57.951Z,7.95
2023-09-01T16:35:07.324Z,6.27
2023-09-01T16:45:10.858Z,8.3
2023-09-01T16:55:10.274Z,5.67
2023-09-01T17:05:10.831Z,5.27
2023-09-01T17:15:10.725Z,5.02
2023-09-01T17:25:14.833Z,6.77
2023-09-01T17:35:15.878Z,6.48
2023-09-01T17:45:20.157Z,9.12
2023-09-01T17:55:21.541Z,6.54
2023-09-01T18:05:20.730Z,7.91
2023-09-01T18:15:30.272Z,10.71
2023-09-01T18:25:39.297Z,7.74
2023-09-01T18:35:50.814Z,6.4
2023-09-01T18:45:48.655Z,6.92
2023-09-01T18:55:57.645Z,5.5
2023-09-01T19:06:06.709Z,7.41
2023-09-01T19:16:15.576Z,6.86
2023-09-01T19:26:16.786Z,5.28
2023-09-01T19:36:15.724Z,6.08
2023-09-01T19:46:31.846Z,5.61
2023-09-01T19:56:33.295Z,8.17
2023-09-01T20:06:32.411Z,6.57
2023-09-01T20:16:41.440Z,7.04
2023-09-01T20:26:52.482Z,7.43
2023-09-01T20:36:52.605Z,6.52
2023-09-01T20:46:51.866Z,6.31
2023-09-01T20:56:52.664Z,7.49
2023-09-01T21:07:03.353Z,5.8
2023-09-01T21:17:22.414Z,7.19
2023-09-01T21:37:18.506Z,6.78
2023-09-01T21:47:30.712Z,5.95
2023-09-01T21:57:30.281Z,9.5
2023-09-01T22:07:39.154Z,7.6
2023-09-01T22:17:48.066Z,8.87
2023-09-01T22:27:56.763Z,7.75
2023-09-01T22:38:12.349Z,8.05
2023-09-01T22:48:12.692Z,11.94
2023-09-01T22:58:21.681Z,10.51
2023-09-01T23:08:30.813Z,11.32
2023-09-01T23:18:39.741Z,11.32
2023-09-01T23:28:48.668Z,8.65
2023-09-01T23:38:59.454Z,9.58
2023-09-01T23:49:00.077Z,7.52
2023-09-01T23:59:00.051Z,10.12
